createdAt,value
2022-08-17T00:00:42.580Z,4.78
2022-08-17T00:04:39.489Z,5.43
2022-08-17T00:08:44.624Z,5.80
2022-08-17T00:12:46.772Z,4.70
2022-08-17T00:16:57.225Z,5.30
2022-08-17T00:21:00.656Z,5.40
2022-08-17T00:25:05.253Z,4.82
2022-08-17T00:29:07.747Z,4.70
2022-08-17T00:33:16.591Z,5.00
2022-08-17T00:37:18.737Z,5.47
2022-08-17T00:41:24.468Z,5.28
2022-08-17T00:45:26.911Z,5.72
2022-08-17T00:49:29.538Z,4.97
2022-08-17T00:53:33.629Z,5.68
2022-08-17T00:57:40.044Z,5.72
2022-08-17T01:01:42.444Z,5.87
2022-08-17T01:05:44.272Z,5.78
2022-08-17T01:09:48.461Z,6.05
2022-08-17T01:13:50.332Z,5.97
2022-08-17T01:17:52.137Z,5.90
2022-08-17T01:22:05.833Z,6.03
2022-08-17T01:26:08.559Z,6.40
2022-08-17T01:30:59.004Z,6.97
2022-08-17T01:34:42.452Z,6.10
2022-08-17T01:38:45.234Z,7.82
2022-08-17T01:42:57.160Z,6.85
2022-08-17T01:46:58.864Z,6.65
2022-08-17T01:51:03.197Z,7.00
2022-08-17T01:55:07.215Z,6.57
2022-08-17T01:59:09.324Z,7.60
2022-08-17T02:03:11.908Z,7.62
2022-08-17T02:07:13.667Z,7.80
2022-08-17T02:11:21.206Z,7.40
2022-08-17T02:15:23.469Z,8.20
2022-08-17T02:19:25.278Z,7.72
2022-08-17T02:23:29.280Z,7.53
2022-08-17T02:27:31.339Z,7.95
2022-08-17T02:31:33.226Z,7.53
2022-08-17T02:35:37.095Z,7.70
2022-08-17T02:39:38.883Z,7.65
2022-08-17T02:43:40.756Z,8.40
2022-08-17T02:47:43.931Z,8.60
2022-08-17T02:51:45.619Z,8.45
2022-08-17T02:55:47.436Z,8.07
2022-08-17T02:59:49.272Z,8.07
2022-08-17T03:03:51.337Z,7.93
2022-08-17T03:07:53.257Z,7.82
2022-08-17T03:11:55.923Z,8.32
2022-08-17T03:15:57.862Z,8.10
2022-08-17T03:19:59.793Z,8.23
2022-08-17T03:24:01.641Z,8.13
2022-08-17T03:28:12.153Z,8.23
2022-08-17T03:32:15.885Z,7.90
2022-08-17T03:36:17.568Z,8.40
2022-08-17T03:40:55.183Z,7.85
2022-08-17T03:44:42.045Z,7.72
2022-08-17T03:49:02.256Z,8.32
2022-08-17T03:53:28.449Z,8.80
2022-08-17T03:57:31.393Z,8.45
2022-08-17T04:01:33.191Z,8.13
2022-08-17T04:05:34.924Z,8.15
2022-08-17T04:09:37.007Z,7.40
2022-08-17T04:13:38.775Z,7.62
2022-08-17T04:17:41.030Z,8.13
2022-08-17T04:21:42.759Z,7.55
2022-08-17T04:25:48.315Z,7.32
2022-08-17T04:29:55.602Z,7.90
2022-08-17T04:33:57.748Z,6.95
2022-08-17T04:37:59.869Z,7.40
2022-08-17T04:42:09.140Z,7.07
2022-08-17T04:46:14.575Z,8.00
2022-08-17T04:50:16.440Z,7.15
2022-08-17T04:54:20.727Z,6.32
2022-08-17T04:58:22.445Z,6.47
2022-08-17T05:02:24.241Z,6.32
2022-08-17T05:06:27.408Z,6.62
2022-08-17T05:10:31.947Z,13.07
2022-08-17T05:14:34.024Z,7.70
2022-08-17T05:18:37.179Z,6.10
2022-08-17T05:22:51.808Z,5.95
2022-08-17T05:26:53.710Z,5.43
2022-08-17T05:30:59.732Z,5.80
2022-08-17T05:35:01.574Z,5.47
2022-08-17T05:39:03.564Z,5.47
2022-08-17T05:43:33.336Z,5.18
2022-08-17T05:47:36.394Z,4.20
2022-08-17T05:52:00.727Z,4.07
2022-08-17T05:56:29.958Z,3.60
2022-08-17T06:00:46.961Z,4.00
2022-08-17T06:04:48.708Z,3.67
2022-08-17T06:09:07.029Z,3.37
2022-08-17T06:13:59.621Z,3.70
2022-08-17T06:18:07.668Z,3.75
2022-08-17T06:22:13.398Z,3.95
2022-08-17T06:26:20.825Z,3.62
2022-08-17T06:30:58.676Z,4.03
2022-08-17T06:34:53.484Z,4.03
2022-08-17T06:39:13.290Z,3.65
2022-08-17T06:43:48.006Z,3.65
2022-08-17T06:47:59.565Z,3.75
2022-08-17T06:52:42.188Z,3.70
2022-08-17T06:56:53.248Z,4.18
2022-08-17T07:01:02.033Z,3.85
2022-08-17T07:09:23.487Z,4.25
2022-08-17T07:13:51.514Z,4.70
2022-08-17T07:17:53.550Z,5.60
2022-08-17T07:22:07.709Z,5.72
2022-08-17T07:26:10.120Z,6.00
2022-08-17T07:30:17.173Z,6.75
2022-08-17T07:38:25.310Z,6.90
2022-08-17T07:42:28.508Z,6.85
2022-08-17T07:46:53.104Z,7.65
2022-08-17T07:50:55.508Z,8.40
2022-08-17T07:54:57.923Z,7.35
2022-08-17T07:59:23.356Z,7.60
2022-08-17T08:03:31.832Z,8.90
2022-08-17T08:07:38.188Z,9.13
2022-08-17T08:11:44.337Z,8.40
2022-08-17T08:16:16.571Z,8.47
2022-08-17T08:20:52.288Z,8.25
2022-08-17T08:24:42.984Z,8.48
2022-08-17T08:28:55.470Z,8.35
2022-08-17T08:33:06.820Z,9.18
2022-08-17T08:37:35.751Z,9.63
2022-08-17T08:41:58.791Z,8.93
2022-08-17T08:46:41.667Z,11.40
2022-08-17T08:51:05.159Z,9.50
2022-08-17T08:55:24.812Z,9.40
2022-08-17T08:59:29.304Z,10.43
2022-08-17T09:03:53.555Z,10.90
2022-08-17T09:08:04.704Z,9.50
2022-08-17T09:12:16.715Z,10.23
2022-08-17T09:16:40.374Z,10.45
2022-08-17T09:20:58.712Z,9.70
2022-08-17T09:25:21.655Z,11.43
2022-08-17T09:29:26.941Z,12.18
2022-08-17T09:33:31.640Z,11.95
2022-08-17T09:38:01.728Z,13.62
2022-08-17T09:42:24.814Z,13.68
2022-08-17T09:46:36.260Z,13.30
2022-08-17T09:51:12.219Z,13.65
2022-08-17T09:55:14.137Z,11.35
2022-08-17T09:59:38.258Z,13.00
2022-08-17T10:04:06.052Z,13.32
2022-08-17T10:08:32.032Z,13.27
2022-08-17T10:12:47.113Z,12.35
2022-08-17T10:16:56.160Z,15.35
2022-08-17T10:21:22.725Z,13.57
2022-08-17T10:25:54.638Z,11.77
2022-08-17T10:30:04.093Z,12.90
2022-08-17T10:34:27.764Z,13.25
2022-08-17T10:38:37.119Z,13.23
2022-08-17T10:42:54.908Z,14.07
2022-08-17T10:46:56.604Z,14.50
2022-08-17T10:51:09.382Z,14.77
2022-08-17T10:55:18.116Z,13.52
2022-08-17T10:59:35.104Z,14.57
2022-08-17T11:03:36.911Z,15.88
2022-08-17T11:07:58.691Z,14.25
2022-08-17T11:12:19.598Z,17.25
2022-08-17T11:16:47.845Z,17.75
2022-08-17T11:21:09.758Z,16.48
2022-08-17T11:25:20.848Z,18.77
2022-08-17T11:29:33.670Z,19.50
2022-08-17T11:33:44.821Z,19.30
2022-08-17T11:38:15.995Z,18.55
2022-08-17T11:42:18.158Z,20.17
2022-08-17T11:47:08.754Z,20.48
2022-08-17T11:51:34.934Z,21.92
2022-08-17T11:55:44.721Z,22.90
2022-08-17T11:59:46.745Z,21.85
2022-08-17T12:03:55.600Z,19.92
2022-08-17T12:08:19.626Z,23.27
2022-08-17T12:12:32.860Z,25.17
2022-08-17T12:16:34.763Z,23.50
2022-08-17T12:20:46.538Z,22.95
2022-08-17T12:25:00.053Z,22.55
2022-08-17T12:29:18.339Z,23.67
2022-08-17T12:33:49.880Z,25.07
2022-08-17T12:37:51.916Z,26.60
2022-08-17T12:42:02.102Z,23.42
2022-08-17T12:46:19.280Z,27.80
2022-08-17T12:50:28.533Z,28.10
2022-08-17T12:54:53.442Z,27.25
2022-08-17T12:58:56.637Z,29.85
2022-08-17T13:03:15.567Z,29.50
2022-08-17T13:07:34.050Z,29.70
2022-08-17T13:11:35.788Z,30.80
2022-08-17T13:15:43.247Z,29.87
2022-08-17T13:19:49.957Z,29.67
2022-08-17T13:24:17.165Z,31.12
2022-08-17T13:28:30.659Z,31.00
2022-08-17T13:32:48.275Z,28.08
2022-08-17T13:36:52.457Z,29.48
2022-08-17T13:40:54.331Z,30.37
2022-08-17T13:44:56.207Z,28.23
2022-08-17T13:49:04.342Z,28.35
2022-08-17T13:53:37.787Z,27.73
2022-08-17T13:57:46.566Z,34.83
2022-08-17T14:01:53.386Z,34.50
2022-08-17T14:05:55.935Z,38.65
2022-08-17T14:10:01.502Z,39.05
2022-08-17T14:14:04.150Z,34.70
2022-08-17T14:18:05.944Z,36.00
2022-08-17T14:22:14.565Z,37.85
2022-08-17T14:26:16.371Z,37.08
2022-08-17T14:30:20.087Z,35.20
2022-08-17T14:34:29.279Z,33.47
2022-08-17T14:38:31.050Z,33.10
2022-08-17T14:42:34.820Z,32.95
2022-08-17T14:46:36.565Z,34.40
2022-08-17T14:50:42.935Z,32.83
2022-08-17T14:54:45.957Z,29.23
2022-08-17T14:58:47.837Z,28.23
2022-08-17T15:02:59.937Z,23.20
2022-08-17T15:07:01.673Z,25.33
2022-08-17T15:11:04.509Z,26.08
2022-08-17T15:15:07.534Z,30.40
2022-08-17T15:19:09.298Z,27.20
2022-08-17T15:23:15.645Z,30.40
2022-08-17T15:27:17.367Z,28.90
2022-08-17T15:31:33.833Z,32.53
2022-08-17T15:35:35.960Z,33.70
2022-08-17T15:39:37.728Z,30.15
2022-08-17T15:43:39.524Z,29.48
2022-08-17T15:47:42.480Z,25.95
2022-08-17T15:51:44.230Z,30.42
2022-08-17T15:55:46.020Z,33.53
2022-08-17T15:59:50.782Z,30.75
2022-08-17T16:04:06.563Z,36.30
2022-08-17T16:08:10.822Z,33.35
2022-08-17T16:12:18.451Z,34.15
2022-08-17T16:16:20.194Z,33.40
2022-08-17T16:20:22.153Z,31.10
2022-08-17T16:24:23.933Z,30.45
2022-08-17T16:28:35.891Z,31.37
2022-08-17T16:32:38.709Z,29.05
2022-08-17T16:36:41.519Z,30.25
2022-08-17T16:40:56.258Z,30.42
2022-08-17T16:45:04.172Z,28.20
2022-08-17T16:49:07.291Z,29.92
2022-08-17T16:53:19.000Z,26.10
2022-08-17T16:57:21.880Z,22.58
2022-08-17T17:01:25.449Z,20.58
2022-08-17T17:05:45.399Z,17.17
2022-08-17T17:09:55.403Z,18.05
2022-08-17T17:14:02.062Z,17.35
2022-08-17T17:18:07.108Z,15.80
2022-08-17T17:22:30.025Z,15.18
2022-08-17T17:26:48.273Z,15.25
2022-08-17T17:31:02.042Z,17.58
2022-08-17T17:35:09.949Z,19.75
2022-08-17T17:39:43.809Z,21.58
2022-08-17T17:43:49.149Z,20.85
2022-08-17T17:47:53.245Z,21.48
2022-08-17T17:52:26.083Z,21.92
2022-08-17T17:56:44.602Z,22.70
2022-08-17T18:00:59.521Z,24.15
2022-08-17T18:05:12.213Z,24.30
2022-08-17T18:09:17.963Z,24.30
2022-08-17T18:13:31.175Z,24.10
2022-08-17T18:17:35.919Z,21.35
2022-08-17T18:21:44.374Z,23.10
2022-08-17T18:25:49.217Z,23.52
2022-08-17T18:29:55.520Z,20.92
2022-08-17T18:34:46.054Z,21.05
2022-08-17T18:38:46.721Z,21.23
2022-08-17T18:43:00.419Z,20.33
2022-08-17T18:47:13.836Z,20.58
2022-08-17T18:51:39.754Z,20.88
2022-08-17T18:59:48.167Z,19.62
2022-08-17T19:03:50.180Z,19.80
2022-08-17T19:07:52.151Z,20.95
2022-08-17T19:11:54.061Z,22.45
2022-08-17T19:16:17.546Z,21.85
2022-08-17T19:20:26.830Z,21.95
2022-08-17T19:24:34.454Z,22.95
2022-08-17T19:28:48.603Z,22.90
2022-08-17T19:32:52.958Z,21.98
2022-08-17T19:37:04.551Z,21.20
2022-08-17T19:41:29.858Z,22.02
2022-08-17T19:46:06.069Z,24.15
2022-08-17T19:50:18.894Z,23.67
2022-08-17T19:55:00.509Z,22.58
2022-08-17T19:59:14.237Z,24.15
2022-08-17T20:04:03.208Z,23.23
2022-08-17T20:08:07.525Z,21.98
2022-08-17T20:12:13.743Z,23.12
2022-08-17T20:16:17.408Z,23.10
2022-08-17T20:21:03.355Z,23.23
2022-08-17T20:25:12.476Z,23.62
2022-08-17T20:29:14.396Z,23.02
2022-08-17T20:33:36.955Z,23.67
2022-08-17T20:37:44.304Z,30.83
2022-08-17T20:42:06.388Z,23.38
2022-08-17T20:46:11.196Z,24.33
2022-08-17T20:50:26.656Z,23.38
2022-08-17T20:54:47.041Z,24.77
2022-08-17T20:58:48.897Z,24.15
2022-08-17T21:03:12.043Z,24.05
2022-08-17T21:07:43.526Z,25.42
2022-08-17T21:12:02.922Z,24.02
2022-08-17T21:16:30.869Z,24.23
2022-08-17T21:20:58.233Z,24.58
2022-08-17T21:25:32.439Z,24.30
2022-08-17T21:29:40.250Z,26.15
2022-08-17T21:34:20.718Z,25.88
2022-08-17T21:38:33.171Z,25.05
2022-08-17T21:42:38.264Z,26.15
2022-08-17T21:46:46.494Z,26.23
2022-08-17T21:51:03.719Z,26.00
2022-08-17T21:55:06.123Z,26.83
2022-08-17T21:59:24.396Z,26.85
2022-08-17T22:03:31.084Z,28.45
2022-08-17T22:07:42.051Z,27.67
2022-08-17T22:11:52.486Z,29.25
2022-08-17T22:16:29.250Z,28.20
2022-08-17T22:20:31.680Z,27.30
2022-08-17T22:24:33.916Z,27.95
2022-08-17T22:28:52.251Z,29.12
2022-08-17T22:32:55.318Z,28.38
2022-08-17T22:37:32.393Z,29.85
2022-08-17T22:41:42.649Z,28.85
2022-08-17T22:46:09.341Z,31.05
2022-08-17T22:50:23.245Z,29.75
2022-08-17T22:54:47.038Z,32.90
2022-08-17T22:59:15.766Z,32.50
2022-08-17T23:03:20.457Z,31.00
2022-08-17T23:07:22.329Z,29.37
2022-08-17T23:11:36.545Z,29.95
2022-08-17T23:15:50.970Z,33.92
2022-08-17T23:19:53.060Z,33.45
2022-08-17T23:23:55.081Z,33.13
2022-08-17T23:27:58.941Z,31.55
2022-08-17T23:32:01.614Z,29.77
2022-08-17T23:36:03.448Z,32.22
2022-08-17T23:40:05.989Z,31.02
2022-08-17T23:44:08.108Z,30.45
2022-08-17T23:48:09.801Z,31.98
2022-08-17T23:52:15.180Z,30.95
2022-08-17T23:56:24.569Z,30.23
